Time;durP1;ratioP1;P1;durP2;ratioP2;P2;SDS_P1;SDS_P2;PMS_P1;PMS_P2;Temp;Humidity;BMP_temperature;BMP_pressure;BME280_temperature;BME280_humidity;BME280_pressure;Samples;Min_cycle;Max_cycle;Signal;HPM_P1;HPM_P2
2021/07/31 00:00:20;;;;;;;16.23;4.38;;;16.60;99.90;;;;;;5008294;28;20200;-66
2021/07/31 00:02:47;;;;;;;12.80;3.80;;;16.60;99.90;;;;;;5010536;28;20921;-66
2021/07/31 00:05:14;;;;;;;15.48;4.13;;;16.60;99.90;;;;;;5009042;28;20292;-63
2021/07/31 00:07:42;;;;;;;16.83;3.85;;;16.60;99.90;;;;;;5009225;28;20204;-65
2021/07/31 00:10:10;;;;;;;14.88;4.13;;;16.60;99.90;;;;;;5010983;28;20548;-66
2021/07/31 00:12:37;;;;;;;14.15;3.83;;;16.60;99.90;;;;;;5012474;28;20228;-65
2021/07/31 00:15:05;;;;;;;16.55;3.75;;;16.60;99.90;;;;;;5010216;28;20206;-66
2021/07/31 00:17:33;;;;;;;9.88;3.90;;;16.60;99.90;;;;;;5009611;28;20629;-66
2021/07/31 00:20:00;;;;;;;19.48;3.90;;;16.60;99.90;;;;;;5007791;28;20208;-65
2021/07/31 00:22:27;;;;;;;18.48;3.90;;;16.60;99.90;;;;;;5006262;28;20256;-64
2021/07/31 00:24:53;;;;;;;11.93;3.63;;;16.60;99.90;;;;;;5009998;28;20211;-66
2021/07/31 00:27:20;;;;;;;20.00;3.88;;;16.70;99.90;;;;;;5007621;28;20204;-66
2021/07/31 00:29:47;;;;;;;17.58;4.15;;;16.60;99.90;;;;;;5009833;28;20208;-65
2021/07/31 00:32:14;;;;;;;18.80;4.07;;;16.60;99.90;;;;;;5008345;28;20693;-67
2021/07/31 00:34:42;;;;;;;18.02;3.65;;;16.60;99.90;;;;;;5008731;28;20200;-66
2021/07/31 00:37:09;;;;;;;15.80;4.18;;;16.60;99.90;;;;;;5010443;28;20200;-66
2021/07/31 00:39:39;;;;;;;18.25;3.70;;;16.60;99.90;;;;;;4992429;28;20731;-65
2021/07/31 00:42:06;;;;;;;14.93;4.13;;;16.60;99.90;;;;;;5008427;28;20641;-66
2021/07/31 00:44:33;;;;;;;17.48;4.63;;;16.60;99.90;;;;;;5008127;28;20196;-66
2021/07/31 00:47:00;;;;;;;22.77;4.60;;;16.60;99.90;;;;;;5009856;28;20625;-66
2021/07/31 00:49:27;;;;;;;16.08;4.40;;;16.60;99.90;;;;;;5005663;28;20236;-63
2021/07/31 00:51:57;;;;;;;19.02;4.40;;;16.60;99.90;;;;;;4985046;28;20716;-65
2021/07/31 00:54:24;;;;;;;30.25;4.93;;;16.60;99.90;;;;;;5010355;28;20211;-66
2021/07/31 00:56:52;;;;;;;25.48;4.70;;;16.70;99.90;;;;;;4986515;28;20657;-64
2021/07/31 00:59:21;;;;;;;17.55;4.45;;;16.60;99.90;;;;;;4990844;28;20292;-64
2021/07/31 01:01:48;;;;;;;15.38;4.18;;;16.60;99.90;;;;;;4993193;28;20259;-65
2021/07/31 01:04:15;;;;;;;19.02;4.18;;;16.60;99.90;;;;;;5001881;28;20208;-64
2021/07/31 01:06:42;;;;;;;15.25;4.13;;;16.60;99.90;;;;;;4999363;28;20686;-64
2021/07/31 01:09:11;;;;;;;24.13;4.43;;;16.60;99.90;;;;;;5009288;28;20282;-67
2021/07/31 01:11:39;;;;;;;21.08;4.05;;;16.60;99.90;;;;;;5003462;28;20206;-64
2021/07/31 01:14:06;;;;;;;14.77;3.85;;;16.60;99.90;;;;;;5009455;28;20197;-65
2021/07/31 01:16:35;;;;;;;21.23;4.05;;;16.70;99.90;;;;;;4992254;28;20556;-64
2021/07/31 01:19:02;;;;;;;16.92;4.30;;;16.70;99.90;;;;;;5004221;28;20204;-62
2021/07/31 01:21:41;;;;;;;14.82;4.38;;;16.70;99.90;;;;;;5010172;28;20290;-65
2021/07/31 01:24:27;;;;;;;14.23;4.30;;;16.70;99.90;;;;;;5007519;28;20213;-66
2021/07/31 01:26:53;;;;;;;19.33;3.60;;;16.70;99.90;;;;;;4998802;28;20233;-68
2021/07/31 01:29:21;;;;;;;12.60;3.92;;;16.70;99.90;;;;;;5010653;28;20204;-66
2021/07/31 01:31:48;;;;;;;23.10;3.65;;;16.70;99.90;;;;;;5007158;28;20220;-66
2021/07/31 01:34:17;;;;;;;16.70;4.20;;;16.70;99.90;;;;;;5004180;28;20209;-66
2021/07/31 01:36:45;;;;;;;12.82;3.60;;;16.70;99.90;;;;;;4995043;28;20218;-67
2021/07/31 01:39:15;;;;;;;12.57;3.35;;;16.70;99.90;;;;;;5007221;28;21418;-66
2021/07/31 01:41:43;;;;;;;13.80;3.42;;;16.70;99.90;;;;;;5012721;28;20211;-68
2021/07/31 01:44:10;;;;;;;19.08;3.70;;;16.70;99.90;;;;;;5013619;28;20192;-65
2021/07/31 01:46:37;;;;;;;11.95;3.50;;;16.70;99.90;;;;;;5009813;28;20200;-66
2021/07/31 01:49:04;;;;;;;14.48;3.72;;;16.70;99.90;;;;;;5007368;28;20209;-67
2021/07/31 01:51:37;;;;;;;18.33;4.03;;;16.70;99.90;;;;;;4998973;28;20243;-68
2021/07/31 01:54:05;;;;;;;15.95;4.00;;;16.70;99.90;;;;;;5009190;28;20212;-67
2021/07/31 01:56:33;;;;;;;17.58;4.07;;;16.70;99.90;;;;;;5010791;28;20567;-66
2021/07/31 01:59:01;;;;;;;13.65;4.18;;;16.70;99.90;;;;;;5005202;28;20209;-66
2021/07/31 02:01:29;;;;;;;18.15;4.30;;;16.70;99.90;;;;;;5007433;28;20575;-64
2021/07/31 02:03:59;;;;;;;18.48;4.20;;;16.70;99.90;;;;;;4991441;28;20211;-66
2021/07/31 02:06:29;;;;;;;18.30;4.22;;;16.70;99.90;;;;;;5010862;28;20212;-67
2021/07/31 02:08:55;;;;;;;21.90;4.57;;;16.80;99.90;;;;;;5011921;28;20198;-66
2021/07/31 02:11:26;;;;;;;20.10;4.43;;;16.80;99.90;;;;;;5011454;28;20200;-66
2021/07/31 02:14:01;;;;;;;18.40;4.55;;;16.80;99.90;;;;;;5009587;28;20214;-66
2021/07/31 02:16:32;;;;;;;23.33;4.68;;;16.80;99.90;;;;;;5007442;28;20603;-68
2021/07/31 02:19:04;;;;;;;26.80;4.72;;;16.80;99.90;;;;;;5005635;28;20267;-66
2021/07/31 02:21:42;;;;;;;24.25;4.50;;;16.70;99.90;;;;;;5004413;28;20205;-66
2021/07/31 02:24:28;;;;;;;24.80;4.68;;;16.80;99.90;;;;;;5012735;28;20242;-64
2021/07/31 02:26:59;;;;;;;20.83;4.32;;;16.70;99.90;;;;;;5012053;28;20215;-67
2021/07/31 02:29:37;;;;;;;22.20;4.35;;;16.70;99.90;;;;;;4994552;28;20266;-67
2021/07/31 02:32:04;;;;;;;17.08;4.18;;;16.70;99.90;;;;;;5005913;28;20271;-66
2021/07/31 02:34:32;;;;;;;19.00;4.50;;;16.70;99.90;;;;;;5006321;28;20251;-65
2021/07/31 02:37:00;;;;;;;26.42;4.22;;;16.70;99.90;;;;;;5009904;28;20193;-67
2021/07/31 02:39:30;;;;;;;29.00;4.65;;;16.70;99.90;;;;;;5004761;28;20278;-66
2021/07/31 02:41:59;;;;;;;31.65;4.78;;;16.70;99.90;;;;;;5009251;28;20239;-66
2021/07/31 02:44:28;;;;;;;23.15;4.47;;;16.70;99.90;;;;;;5009701;28;20199;-66
2021/07/31 02:46:57;;;;;;;24.27;5.15;;;16.70;99.90;;;;;;5007232;28;20201;-65
2021/07/31 02:49:25;;;;;;;24.52;5.00;;;16.70;99.90;;;;;;4992446;28;20208;-67
2021/07/31 02:51:52;;;;;;;25.15;5.47;;;16.70;99.90;;;;;;5011442;28;20212;-67
2021/07/31 02:54:28;;;;;;;24.70;5.03;;;16.70;99.90;;;;;;4992450;28;20235;-66
2021/07/31 02:57:00;;;;;;;21.45;5.05;;;16.70;99.90;;;;;;5004486;28;20201;-67
2021/07/31 02:59:27;;;;;;;21.42;4.60;;;16.60;99.90;;;;;;5008374;28;20196;-65
2021/07/31 03:01:53;;;;;;;24.33;5.30;;;16.60;99.90;;;;;;5008040;28;20205;-67
2021/07/31 03:04:22;;;;;;;26.75;6.50;;;16.60;99.90;;;;;;4993115;28;20196;-66
2021/07/31 03:06:53;;;;;;;32.88;6.97;;;16.60;99.90;;;;;;5009998;28;20250;-68
2021/07/31 03:09:21;;;;;;;27.17;6.50;;;16.60;99.90;;;;;;5010527;28;20204;-68
2021/07/31 03:11:48;;;;;;;25.48;6.95;;;16.60;99.90;;;;;;5005515;28;20216;-67
2021/07/31 03:14:16;;;;;;;24.35;6.82;;;16.50;99.90;;;;;;5008262;28;20755;-66
2021/07/31 03:16:43;;;;;;;24.38;6.55;;;16.50;99.90;;;;;;5004937;28;20227;-66
2021/07/31 03:19:10;;;;;;;20.25;6.72;;;16.50;99.90;;;;;;5006318;28;20212;-65
2021/07/31 03:21:42;;;;;;;20.33;6.20;;;16.50;99.90;;;;;;4991077;28;20201;-66
2021/07/31 03:24:36;;;;;;;23.38;6.00;;;16.40;99.90;;;;;;5007146;28;20263;-66
2021/07/31 03:27:05;;;;;;;26.50;6.03;;;16.40;99.90;;;;;;5009223;28;20216;-66
2021/07/31 03:29:52;;;;;;;17.05;5.75;;;16.40;99.90;;;;;;5007738;28;20301;-67
2021/07/31 03:32:20;;;;;;;16.10;5.90;;;16.30;99.90;;;;;;5004961;28;20724;-68
2021/07/31 03:34:48;;;;;;;19.95;6.40;;;16.40;99.90;;;;;;4991174;28;20573;-68
2021/07/31 03:37:16;;;;;;;23.67;6.30;;;16.30;99.90;;;;;;5003942;28;20201;-67
2021/07/31 03:39:43;;;;;;;21.05;6.88;;;16.30;99.90;;;;;;5008041;28;20223;-68
2021/07/31 03:42:10;;;;;;;23.65;6.40;;;16.40;99.90;;;;;;5009442;28;20288;-66
2021/07/31 03:44:39;;;;;;;18.98;6.63;;;16.30;99.90;;;;;;5005594;28;20205;-67
2021/07/31 03:47:08;;;;;;;17.77;5.85;;;16.30;99.90;;;;;;5009307;28;20192;-68
2021/07/31 03:49:35;;;;;;;14.50;5.00;;;16.30;99.90;;;;;;5007678;28;20204;-66
2021/07/31 03:52:02;;;;;;;12.38;5.13;;;16.40;99.90;;;;;;5005893;28;20215;-65
2021/07/31 03:54:29;;;;;;;13.32;5.10;;;16.30;99.90;;;;;;4995905;28;20219;-67
2021/07/31 03:56:58;;;;;;;17.38;5.07;;;16.30;99.90;;;;;;5005795;28;20204;-66
2021/07/31 03:59:34;;;;;;;12.73;4.43;;;16.30;99.90;;;;;;5004153;28;20226;-67
2021/07/31 04:02:02;;;;;;;17.08;4.22;;;16.40;99.90;;;;;;4992058;28;20200;-67
2021/07/31 04:04:31;;;;;;;8.70;3.60;;;16.30;99.90;;;;;;5004326;28;20198;-68
2021/07/31 04:06:59;;;;;;;12.93;3.30;;;16.30;99.90;;;;;;5007452;28;20208;-67
2021/07/31 04:09:44;;;;;;;14.52;3.95;;;16.40;99.90;;;;;;5007849;28;20650;-67
2021/07/31 04:12:30;;;;;;;15.20;3.88;;;16.40;99.90;;;;;;5008598;28;20219;-66
2021/07/31 04:15:30;;;;;;;10.05;3.10;;;16.40;99.90;;;;;;4975051;28;20271;-65
2021/07/31 04:17:57;;;;;;;10.93;2.92;;;16.40;99.90;;;;;;5007332;28;20212;-66
2021/07/31 04:20:25;;;;;;;13.23;3.00;;;16.40;99.90;;;;;;5008272;28;20208;-67
2021/07/31 04:22:53;;;;;;;16.02;3.15;;;16.40;99.90;;;;;;5005483;28;21003;-67
2021/07/31 04:25:25;;;;;;;13.55;3.42;;;16.40;99.90;;;;;;5001851;28;20299;-67
2021/07/31 04:27:51;;;;;;;14.45;3.42;;;16.40;99.90;;;;;;5010261;28;20205;-66
2021/07/31 04:30:18;;;;;;;15.30;3.35;;;16.40;99.90;;;;;;5006174;28;20211;-68
2021/07/31 04:32:45;;;;;;;14.05;3.55;;;16.40;99.90;;;;;;4985528;28;20216;-67
2021/07/31 04:35:12;;;;;;;14.95;3.60;;;16.40;99.90;;;;;;5004152;28;20214;-67
2021/07/31 04:37:40;;;;;;;11.30;3.55;;;16.40;99.90;;;;;;5000336;28;20212;-67
2021/07/31 04:40:08;;;;;;;17.17;3.75;;;16.40;99.90;;;;;;5002106;28;20207;-67
2021/07/31 04:42:35;;;;;;;15.88;3.67;;;16.40;99.90;;;;;;4997769;28;20212;-68
2021/07/31 04:45:01;;;;;;;11.65;3.80;;;16.40;99.90;;;;;;5007208;28;20669;-65
2021/07/31 04:47:28;;;;;;;14.43;4.00;;;16.40;99.90;;;;;;5008433;28;20617;-66
2021/07/31 04:49:55;;;;;;;11.40;3.90;;;16.50;99.90;;;;;;5005702;28;20235;-67
2021/07/31 04:52:22;;;;;;;13.57;3.75;;;16.50;99.90;;;;;;5006786;28;20204;-67
2021/07/31 04:54:50;;;;;;;9.80;3.70;;;16.50;99.90;;;;;;5004583;28;20228;-67
2021/07/31 04:57:17;;;;;;;13.05;3.40;;;16.50;99.90;;;;;;5004113;28;20220;-68
2021/07/31 04:59:44;;;;;;;15.98;3.83;;;16.50;99.90;;;;;;5003733;28;20200;-66
2021/07/31 05:02:11;;;;;;;12.88;3.45;;;16.50;99.90;;;;;;4981327;28;20666;-64
2021/07/31 05:04:37;;;;;;;16.20;4.72;;;16.50;99.90;;;;;;5001811;28;20212;-68
2021/07/31 05:07:05;;;;;;;17.10;4.97;;;16.50;99.90;;;;;;5009095;28;20581;-65
2021/07/31 05:09:31;;;;;;;20.25;4.97;;;16.50;99.90;;;;;;5011528;28;20211;-66
2021/07/31 05:12:00;;;;;;;14.38;5.28;;;16.40;99.90;;;;;;5013024;28;20549;-65
2021/07/31 05:14:27;;;;;;;20.80;6.30;;;16.30;99.90;;;;;;5012706;28;20688;-66
2021/07/31 05:16:54;;;;;;;24.48;6.30;;;16.30;99.90;;;;;;5006465;28;20209;-65
2021/07/31 05:19:21;;;;;;;20.88;6.78;;;16.20;99.90;;;;;;5006504;28;20211;-65
2021/07/31 05:21:48;;;;;;;24.15;6.28;;;16.20;99.90;;;;;;5009631;28;21491;-67
2021/07/31 05:24:15;;;;;;;16.58;6.47;;;16.20;99.90;;;;;;5007737;28;20215;-63
2021/07/31 05:26:42;;;;;;;24.95;6.07;;;16.10;99.90;;;;;;5009931;28;20208;-64
2021/07/31 05:29:10;;;;;;;26.27;5.95;;;16.10;99.90;;;;;;5011224;28;20247;-66
2021/07/31 05:31:37;;;;;;;25.65;5.95;;;16.10;99.90;;;;;;5006792;28;20236;-66
2021/07/31 05:34:03;;;;;;;15.63;5.28;;;16.10;99.90;;;;;;5007250;28;20220;-67
2021/07/31 05:36:35;;;;;;;16.92;5.05;;;16.10;99.90;;;;;;5007280;28;20212;-67
2021/07/31 05:39:03;;;;;;;20.08;5.82;;;16.10;99.90;;;;;;5007264;28;20200;-65
2021/07/31 05:41:29;;;;;;;18.02;5.30;;;16.10;99.90;;;;;;5010620;28;21245;-66
2021/07/31 05:43:56;;;;;;;15.77;5.20;;;16.10;99.90;;;;;;5003699;28;20201;-65
2021/07/31 05:46:24;;;;;;;15.98;5.30;;;16.10;99.90;;;;;;5009835;28;20695;-65
2021/07/31 05:48:52;;;;;;;19.52;5.28;;;16.10;99.90;;;;;;5011294;28;20200;-66
2021/07/31 05:51:19;;;;;;;17.08;5.32;;;16.10;99.90;;;;;;5004789;28;20714;-67
2021/07/31 05:53:46;;;;;;;24.70;5.50;;;16.10;99.90;;;;;;5005226;28;20217;-66
2021/07/31 05:56:13;;;;;;;21.88;5.55;;;16.10;99.90;;;;;;5007905;28;20220;-66
2021/07/31 05:58:40;;;;;;;22.95;5.85;;;16.10;99.90;;;;;;5008944;28;20208;-67
2021/07/31 06:01:07;;;;;;;17.10;5.13;;;16.10;99.90;;;;;;5005391;28;20219;-65
2021/07/31 06:03:36;;;;;;;15.75;4.70;;;16.10;99.90;;;;;;5005933;28;20263;-65
2021/07/31 06:06:03;;;;;;;18.38;5.07;;;16.10;99.90;;;;;;5007513;28;20211;-65
2021/07/31 06:08:30;;;;;;;15.52;5.18;;;16.10;99.90;;;;;;5008350;28;20217;-66
2021/07/31 06:11:01;;;;;;;16.35;5.20;;;16.10;99.90;;;;;;5005447;28;20204;-66
2021/07/31 06:13:28;;;;;;;24.83;5.13;;;16.10;99.90;;;;;;5007870;28;20288;-64
2021/07/31 06:15:55;;;;;;;16.55;4.75;;;16.10;99.90;;;;;;5009663;28;22965;-65
2021/07/31 06:18:21;;;;;;;18.65;5.15;;;16.10;99.90;;;;;;5009269;28;20244;-65
2021/07/31 06:20:50;;;;;;;20.63;5.20;;;16.10;99.90;;;;;;5003739;28;20684;-64
2021/07/31 06:23:17;;;;;;;12.73;5.03;;;16.10;99.90;;;;;;5008374;28;20942;-65
2021/07/31 06:25:43;;;;;;;18.52;5.25;;;16.10;99.90;;;;;;5005930;28;20204;-66
2021/07/31 06:28:10;;;;;;;22.60;5.07;;;16.10;99.90;;;;;;5007967;28;20267;-67
2021/07/31 06:30:37;;;;;;;17.67;5.00;;;16.10;99.90;;;;;;5007174;28;20204;-67
2021/07/31 06:33:04;;;;;;;16.63;4.57;;;16.10;99.90;;;;;;5007951;28;20204;-67
2021/07/31 06:35:31;;;;;;;16.05;4.78;;;16.20;99.90;;;;;;5007586;28;20221;-67
2021/07/31 06:37:59;;;;;;;22.25;4.95;;;16.20;99.90;;;;;;5009108;28;20288;-67
2021/07/31 06:40:26;;;;;;;15.25;4.88;;;16.20;99.90;;;;;;5005645;28;20231;-67
2021/07/31 06:42:53;;;;;;;23.52;5.28;;;16.20;99.90;;;;;;5007246;28;20311;-67
2021/07/31 06:45:19;;;;;;;16.65;5.38;;;16.30;99.90;;;;;;5007237;28;20205;-67
2021/07/31 06:47:47;;;;;;;16.25;5.30;;;16.30;99.90;;;;;;5007484;28;20228;-68
2021/07/31 06:50:14;;;;;;;18.35;4.95;;;16.30;99.90;;;;;;4969259;28;1083734;-66
2021/07/31 06:52:41;;;;;;;19.02;5.20;;;16.20;99.90;;;;;;5004285;28;20263;-65
2021/07/31 06:55:11;;;;;;;16.27;4.85;;;16.30;99.90;;;;;;5007573;28;20576;-65
2021/07/31 06:57:37;;;;;;;14.32;4.65;;;16.30;99.90;;;;;;4995433;28;20217;-67
2021/07/31 07:00:05;;;;;;;21.13;4.68;;;16.30;99.90;;;;;;5009019;28;20208;-65
2021/07/31 07:02:32;;;;;;;18.23;4.40;;;16.30;99.90;;;;;;5006828;28;20201;-65
2021/07/31 07:04:59;;;;;;;13.27;4.38;;;16.40;99.90;;;;;;5006789;28;20205;-66
2021/07/31 07:07:26;;;;;;;17.65;4.90;;;16.40;99.90;;;;;;5008882;28;20195;-67
2021/07/31 07:09:52;;;;;;;10.93;4.20;;;16.40;99.90;;;;;;5008479;28;20600;-65
2021/07/31 07:12:21;;;;;;;14.60;3.95;;;16.50;99.90;;;;;;4994415;28;20209;-67
2021/07/31 07:14:48;;;;;;;13.48;4.00;;;16.50;99.90;;;;;;5008949;28;20282;-66
2021/07/31 07:17:15;;;;;;;11.73;3.45;;;16.50;99.90;;;;;;5005690;28;20209;-65
2021/07/31 07:19:41;;;;;;;13.82;3.08;;;16.60;99.90;;;;;;5008653;28;20274;-66
2021/07/31 07:22:08;;;;;;;12.48;3.53;;;16.60;99.90;;;;;;5002495;28;20263;-67
2021/07/31 07:24:36;;;;;;;18.55;3.08;;;16.60;99.90;;;;;;5007104;28;20201;-67
2021/07/31 07:27:03;;;;;;;9.98;2.53;;;16.60;99.90;;;;;;5010139;28;20211;-65
2021/07/31 07:29:31;;;;;;;11.77;2.47;;;16.60;99.90;;;;;;5006184;28;20204;-64
2021/07/31 07:31:58;;;;;;;17.85;3.15;;;16.60;99.90;;;;;;5008739;28;20593;-64
2021/07/31 07:34:24;;;;;;;12.30;3.10;;;16.50;99.90;;;;;;5008517;28;20221;-67
2021/07/31 07:36:51;;;;;;;22.17;3.45;;;16.50;99.90;;;;;;5008832;28;20211;-63
2021/07/31 07:39:18;;;;;;;15.80;3.83;;;16.40;99.90;;;;;;5009508;28;20226;-62
2021/07/31 07:41:45;;;;;;;19.48;3.75;;;16.30;99.90;;;;;;5011443;28;20730;-62
2021/07/31 07:44:12;;;;;;;14.45;3.95;;;16.20;99.90;;;;;;5009501;28;20531;-62
2021/07/31 07:46:40;;;;;;;15.93;4.10;;;16.20;99.90;;;;;;5012424;28;20209;-63
2021/07/31 07:49:07;;;;;;;14.38;3.85;;;16.20;99.90;;;;;;5010502;28;20208;-64
2021/07/31 07:51:33;;;;;;;13.00;4.22;;;16.20;99.90;;;;;;5008935;28;20236;-65
2021/07/31 07:54:00;;;;;;;14.27;4.47;;;16.30;99.90;;;;;;5008656;28;20212;-65
2021/07/31 07:56:27;;;;;;;12.07;4.60;;;16.40;99.90;;;;;;4994632;28;20768;-65
2021/07/31 07:58:57;;;;;;;16.38;5.40;;;16.50;99.90;;;;;;5014366;28;20203;-64
2021/07/31 08:01:24;;;;;;;15.05;4.75;;;16.60;99.90;;;;;;5012729;28;20665;-64
2021/07/31 08:03:52;;;;;;;17.17;6.13;;;16.60;99.90;;;;;;5010015;28;20208;-64
2021/07/31 08:06:19;;;;;;;23.60;6.20;;;16.60;99.90;;;;;;5011015;28;20649;-64
2021/07/31 08:08:46;;;;;;;22.58;7.55;;;16.70;99.90;;;;;;5009099;28;20219;-64
2021/07/31 08:11:12;;;;;;;16.10;6.25;;;16.80;99.90;;;;;;5007523;28;20196;-63
2021/07/31 08:13:39;;;;;;;14.05;5.47;;;16.90;99.90;;;;;;5012452;28;20614;-64
2021/07/31 08:16:06;;;;;;;25.17;5.97;;;17.00;99.90;;;;;;5008411;28;20677;-66
2021/07/31 08:18:33;;;;;;;12.43;5.03;;;17.00;99.90;;;;;;5008965;28;20228;-65
2021/07/31 08:21:01;;;;;;;13.93;5.03;;;17.00;99.90;;;;;;5005274;28;20623;-64
2021/07/31 08:23:28;;;;;;;19.77;4.93;;;17.10;99.90;;;;;;5007269;28;20298;-65
2021/07/31 08:25:55;;;;;;;11.70;5.40;;;17.20;99.90;;;;;;5008258;28;20283;-64
2021/07/31 08:28:22;;;;;;;17.25;5.22;;;17.40;99.90;;;;;;5008924;28;20214;-64
2021/07/31 08:30:49;;;;;;;13.32;4.43;;;17.60;99.90;;;;;;4990212;28;20212;-65
2021/07/31 08:33:16;;;;;;;9.15;3.95;;;17.70;99.90;;;;;;4991187;28;20212;-65
2021/07/31 08:35:43;;;;;;;17.27;4.20;;;17.70;99.90;;;;;;5007452;28;20232;-65
2021/07/31 08:38:11;;;;;;;14.35;4.47;;;17.80;99.90;;;;;;5007567;28;20204;-62
2021/07/31 08:40:38;;;;;;;7.38;3.60;;;17.90;99.90;;;;;;5009577;28;20254;-65
2021/07/31 08:43:05;;;;;;;10.98;3.95;;;18.10;99.90;;;;;;5007250;28;20223;-64
2021/07/31 08:45:33;;;;;;;13.45;4.22;;;18.20;99.90;;;;;;5011753;28;20192;-64
2021/07/31 08:48:01;;;;;;;17.08;4.78;;;18.20;99.90;;;;;;5011601;28;20197;-65
2021/07/31 08:50:29;;;;;;;13.68;4.18;;;18.30;99.90;;;;;;5012733;28;20228;-65
2021/07/31 08:52:58;;;;;;;13.38;4.55;;;18.40;99.90;;;;;;5012623;28;20645;-65
2021/07/31 08:55:26;;;;;;;13.10;4.07;;;18.60;99.90;;;;;;5010985;28;20228;-64
2021/07/31 08:57:53;;;;;;;11.43;4.47;;;18.70;99.90;;;;;;5013897;28;20212;-63
2021/07/31 09:00:20;;;;;;;17.27;4.07;;;18.70;99.90;;;;;;5010429;28;20204;-65
2021/07/31 09:02:48;;;;;;;10.52;4.10;;;18.90;99.90;;;;;;5012649;28;20258;-66
2021/07/31 09:05:29;;;;;;;8.55;3.67;;;19.20;99.90;;;;;;5010049;28;20208;-66
2021/07/31 09:07:59;;;;;;;10.00;3.60;;;19.50;99.90;;;;;;5008904;28;20279;-65
2021/07/31 09:10:29;;;;;;;11.02;3.60;;;19.60;99.90;;;;;;5009841;28;20298;-66
2021/07/31 09:12:57;;;;;;;9.80;4.10;;;19.60;99.90;;;;;;5003319;28;20205;-65
2021/07/31 09:15:32;;;;;;;13.15;3.65;;;19.50;99.90;;;;;;5009362;28;20906;-65
2021/07/31 09:18:26;;;;;;;13.00;3.58;;;19.50;99.90;;;;;;5008289;28;20270;-66
2021/07/31 09:21:08;;;;;;;11.02;3.33;;;19.70;99.90;;;;;;5008804;28;20664;-66
2021/07/31 09:23:46;;;;;;;10.98;2.88;;;20.10;99.90;;;;;;5012316;28;20581;-66
2021/07/31 09:26:17;;;;;;;7.95;2.45;;;20.40;99.90;;;;;;4994735;28;20629;-66
2021/07/31 09:28:45;;;;;;;8.45;2.67;;;20.50;99.90;;;;;;5013587;28;20582;-65
2021/07/31 09:31:16;;;;;;;7.05;2.45;;;20.50;99.90;;;;;;5011143;28;20571;-65
2021/07/31 09:33:45;;;;;;;10.60;2.25;;;20.30;99.90;;;;;;5011995;28;20259;-66
2021/07/31 09:36:12;;;;;;;9.63;3.10;;;20.10;99.90;;;;;;5009960;28;20266;-66
2021/07/31 09:38:42;;;;;;;10.60;2.60;;;20.00;99.90;;;;;;5005588;28;20224;-66
2021/07/31 09:41:32;;;;;;;7.43;2.60;;;20.00;99.90;;;;;;5012199;28;20212;-66
2021/07/31 09:44:17;;;;;;;9.90;3.00;;;20.00;99.90;;;;;;5009334;28;20672;-66
2021/07/31 09:46:46;;;;;;;8.32;2.22;;;19.90;99.90;;;;;;5011623;28;20271;-66
2021/07/31 09:49:14;;;;;;;14.52;2.40;;;19.90;99.90;;;;;;5012518;28;20200;-66
2021/07/31 09:51:43;;;;;;;12.23;2.00;;;19.80;99.90;;;;;;5008545;28;20361;-65
2021/07/31 09:54:11;;;;;;;4.93;2.10;;;19.60;99.90;;;;;;5011172;28;20223;-66
2021/07/31 09:56:45;;;;;;;9.07;2.50;;;19.40;99.90;;;;;;5010785;28;20233;-65
2021/07/31 09:59:14;;;;;;;7.35;2.30;;;19.20;99.90;;;;;;5005720;28;20204;-66
2021/07/31 10:01:46;;;;;;;9.55;2.22;;;19.10;99.90;;;;;;5007970;28;20197;-66
2021/07/31 10:04:13;;;;;;;10.98;2.40;;;19.20;99.90;;;;;;5010504;28;20206;-65
2021/07/31 10:06:40;;;;;;;8.77;2.80;;;19.20;99.90;;;;;;5010236;28;20619;-66
2021/07/31 10:09:08;;;;;;;11.73;2.17;;;19.30;99.90;;;;;;5010204;28;20215;-66
2021/07/31 10:11:37;;;;;;;7.95;2.30;;;19.50;99.90;;;;;;5009735;28;20208;-65
2021/07/31 10:14:08;;;;;;;9.70;2.97;;;19.70;99.90;;;;;;5008266;28;20256;-66
2021/07/31 10:16:37;;;;;;;8.73;2.72;;;19.90;99.90;;;;;;5009300;28;20272;-65
2021/07/31 10:19:05;;;;;;;9.93;2.40;;;20.10;99.90;;;;;;5009371;28;20270;-66
2021/07/31 10:21:35;;;;;;;11.00;2.50;;;20.20;99.90;;;;;;5008849;28;20196;-65
2021/07/31 10:24:04;;;;;;;9.77;2.10;;;20.10;99.90;;;;;;5008540;28;20263;-65
2021/07/31 10:26:33;;;;;;;6.82;2.38;;;20.00;99.90;;;;;;5009953;28;20573;-65
2021/07/31 10:29:37;;;;;;;11.82;2.65;;;19.80;99.90;;;;;;5010178;28;20208;-66
2021/07/31 10:32:40;;;;;;;8.88;2.65;;;19.60;99.90;;;;;;5009888;28;20270;-66
2021/07/31 10:35:33;;;;;;;6.28;2.70;;;19.50;99.90;;;;;;5003234;28;20330;-66
2021/07/31 10:38:02;;;;;;;9.82;2.78;;;19.50;99.90;;;;;;5009136;28;20192;-66
2021/07/31 10:40:52;;;;;;;8.52;2.72;;;19.50;99.90;;;;;;5010280;28;20200;-65
2021/07/31 10:43:19;;;;;;;9.77;2.55;;;19.50;99.90;;;;;;5008713;28;20204;-66
2021/07/31 10:45:49;;;;;;;7.72;2.50;;;19.40;99.90;;;;;;5007951;28;20649;-68
2021/07/31 10:48:41;;;;;;;6.95;2.10;;;19.60;99.90;;;;;;5010945;28;20219;-66
2021/07/31 10:51:08;;;;;;;6.63;2.22;;;20.00;99.90;;;;;;5007286;28;20239;-67
2021/07/31 10:53:52;;;;;;;6.53;2.00;;;20.40;99.90;;;;;;5008874;28;20205;-66
2021/07/31 10:56:19;;;;;;;10.48;2.15;;;20.70;99.90;;;;;;5007400;28;20274;-65
2021/07/31 10:59:19;;;;;;;13.18;2.60;;;20.70;99.90;;;;;;5010765;28;20228;-66
2021/07/31 11:01:47;;;;;;;9.20;2.13;;;20.70;99.90;;;;;;5006981;28;20204;-65
2021/07/31 11:04:52;;;;;;;15.88;2.72;;;20.80;99.90;;;;;;5010043;28;20228;-65
2021/07/31 11:07:25;;;;;;;11.02;2.38;;;21.00;99.90;;;;;;5008792;28;20196;-65
2021/07/31 11:10:29;;;;;;;11.05;2.58;;;21.40;99.90;;;;;;5007580;28;20672;-65
2021/07/31 11:12:55;;;;;;;8.95;1.75;;;21.60;99.90;;;;;;5009647;28;20204;-65
2021/07/31 11:15:23;;;;;;;10.80;2.40;;;21.90;99.90;;;;;;5008569;28;20213;-65
2021/07/31 11:17:55;;;;;;;6.15;2.08;;;22.30;99.90;;;;;;5009975;28;20204;-67
2021/07/31 11:20:31;;;;;;;9.07;1.85;;;22.70;99.90;;;;;;5011831;28;20242;-66
2021/07/31 11:23:04;;;;;;;10.20;2.03;;;23.00;99.90;;;;;;5007173;28;20196;-64
2021/07/31 11:25:30;;;;;;;8.43;2.20;;;23.30;99.70;;;;;;5008506;28;20209;-66
2021/07/31 11:28:00;;;;;;;7.95;2.10;;;23.30;98.10;;;;;;5008085;28;20580;-65
2021/07/31 11:30:37;;;;;;;7.15;2.05;;;23.10;97.50;;;;;;5007082;28;20669;-66
2021/07/31 11:33:21;;;;;;;9.48;2.90;;;23.20;97.60;;;;;;5005646;28;20208;-66
2021/07/31 11:35:49;;;;;;;7.10;2.72;;;23.50;97.10;;;;;;5007034;28;20274;-67
2021/07/31 11:38:35;;;;;;;7.63;2.67;;;23.80;96.80;;;;;;5007846;28;20202;-67
2021/07/31 11:41:04;;;;;;;9.65;2.72;;;24.10;95.60;;;;;;5010740;28;20208;-65
2021/07/31 11:43:43;;;;;;;12.52;2.63;;;24.20;95.10;;;;;;5007820;28;20211;-66
2021/07/31 11:46:10;;;;;;;16.92;3.15;;;24.10;94.50;;;;;;5005831;28;20227;-66
2021/07/31 11:48:37;;;;;;;12.15;2.97;;;24.10;94.50;;;;;;5006836;28;20396;-66
2021/07/31 11:51:05;;;;;;;6.32;2.50;;;23.90;94.10;;;;;;5006982;28;20239;-66
2021/07/31 11:53:33;;;;;;;9.10;2.88;;;23.90;93.80;;;;;;5007895;28;20695;-66
2021/07/31 11:56:15;;;;;;;11.52;2.92;;;23.90;93.70;;;;;;5008082;28;20209;-66
2021/07/31 11:58:43;;;;;;;8.27;3.05;;;23.70;93.30;;;;;;5007617;28;20203;-66
2021/07/31 12:01:10;;;;;;;11.63;3.30;;;23.60;93.30;;;;;;5007910;28;20266;-65
2021/07/31 12:03:45;;;;;;;10.95;3.53;;;23.40;93.70;;;;;;5008433;28;20215;-66
2021/07/31 12:06:40;;;;;;;9.48;3.33;;;23.40;94.00;;;;;;5007038;28;20257;-65
2021/07/31 12:09:32;;;;;;;13.60;3.03;;;23.40;93.70;;;;;;5008660;28;20260;-67
2021/07/31 12:11:59;;;;;;;13.18;3.38;;;23.50;93.80;;;;;;5005071;28;20208;-67
2021/07/31 12:14:34;;;;;;;12.63;3.40;;;23.60;93.70;;;;;;5011219;28;20196;-66
2021/07/31 12:17:21;;;;;;;9.20;2.72;;;23.90;93.40;;;;;;5005487;28;20239;-66
2021/07/31 12:19:54;;;;;;;11.85;3.00;;;23.90;92.90;;;;;;5008054;28;20896;-68
2021/07/31 12:22:23;;;;;;;11.40;2.95;;;23.90;92.60;;;;;;5008871;28;20208;-66
2021/07/31 12:25:13;;;;;;;8.10;2.92;;;23.70;92.20;;;;;;5007225;28;20770;-66
2021/07/31 12:28:05;;;;;;;11.60;3.55;;;23.60;92.10;;;;;;5003736;28;20208;-66
2021/07/31 12:30:39;;;;;;;4.88;2.65;;;23.50;92.50;;;;;;5009437;28;20302;-68
2021/07/31 12:33:16;;;;;;;8.75;2.70;;;23.60;93.20;;;;;;5006329;28;20199;-67
2021/07/31 12:35:44;;;;;;;5.15;2.47;;;23.80;92.50;;;;;;5011550;28;20215;-67
2021/07/31 12:38:14;;;;;;;13.85;3.03;;;23.90;92.50;;;;;;5012404;28;20204;-66
2021/07/31 12:40:43;;;;;;;9.15;2.55;;;23.90;92.40;;;;;;5006497;28;20569;-66
2021/07/31 12:43:11;;;;;;;9.18;2.53;;;24.10;92.60;;;;;;5009229;28;20235;-66
2021/07/31 12:45:38;;;;;;;7.22;2.33;;;24.30;92.40;;;;;;5008789;28;20192;-66
2021/07/31 12:48:06;;;;;;;6.70;2.65;;;24.40;92.10;;;;;;5008636;28;20212;-66
2021/07/31 12:50:33;;;;;;;10.30;2.95;;;24.50;91.70;;;;;;5006631;28;20291;-66
2021/07/31 12:53:01;;;;;;;13.05;2.90;;;24.50;91.10;;;;;;5008337;28;20204;-66